Time;durP1;ratioP1;P1;durP2;ratioP2;P2;SDS_P1;SDS_P2;PMS_P1;PMS_P2;Temp;Humidity;BMP_temperature;BMP_pressure;BME280_temperature;BME280_humidity;BME280_pressure;Samples;Min_cycle;Max_cycle;Signal;HPM_P1;HPM_P2
2024/01/30 00:01:07;;;;;;;;;;;17.50;46.10;;;;;;5095170;28;19919;-70
2024/01/30 00:03:33;;;;;;;;;;;17.50;46.10;;;;;;5112916;28;19920;-68
2024/01/30 00:05:58;;;;;;;;;;;17.50;46.10;;;;;;5113252;28;19919;-70
2024/01/30 00:08:24;;;;;;;;;;;17.50;46.20;;;;;;5094716;28;19920;-70
2024/01/30 00:10:49;;;;;;;;;;;17.50;46.20;;;;;;5095046;28;19920;-68
2024/01/30 00:13:17;;;;;;;;;;;17.50;46.20;;;;;;5094544;28;19924;-68
2024/01/30 00:15:43;;;;;;;;;;;17.50;46.20;;;;;;5112923;28;19927;-70
2024/01/30 00:18:08;;;;;;;;;;;17.40;46.20;;;;;;5094904;28;19923;-68
2024/01/30 00:20:34;;;;;;;;;;;17.40;46.20;;;;;;5094511;28;19931;-68
2024/01/30 00:22:59;;;;;;;;;;;17.50;46.30;;;;;;5112819;28;19942;-70
2024/01/30 00:25:25;;;;;;;;;;;17.40;46.20;;;;;;5112902;28;19927;-70
2024/01/30 00:27:50;;;;;;;;;;;17.40;46.30;;;;;;5094499;28;19931;-68
2024/01/30 00:30:16;;;;;;;;;;;17.40;46.30;;;;;;5128578;28;19920;-71
2024/01/30 00:32:41;;;;;;;;;;;17.40;46.30;;;;;;5112711;28;19924;-70
2024/01/30 00:35:07;;;;;;;;;;;17.40;46.30;;;;;;5112526;28;19926;-71
2024/01/30 00:37:32;;;;;;;;;;;17.40;46.30;;;;;;5094371;28;19973;-72
2024/01/30 00:39:58;;;;;;;;;;;17.30;46.20;;;;;;5112612;28;19923;-70
2024/01/30 00:42:23;;;;;;;;;;;17.30;46.30;;;;;;5112687;28;19919;-71
2024/01/30 00:44:49;;;;;;;;;;;17.30;46.30;;;;;;5128376;28;19920;-71
2024/01/30 00:47:18;;;;;;;;;;;17.30;46.20;;;;;;5094616;28;19920;-70
2024/01/30 00:49:46;;;;;;;;;;;17.30;46.30;;;;;;5077589;28;19920;-70
2024/01/30 00:52:12;;;;;;;;;;;17.30;46.30;;;;;;5112726;28;19947;-71
2024/01/30 00:54:37;;;;;;;;;;;17.30;46.30;;;;;;5094090;28;20231;-71
2024/01/30 00:57:03;;;;;;;;;;;17.40;46.10;;;;;;5112633;28;20033;-70
2024/01/30 00:59:28;;;;;;;;;;;17.80;45.90;;;;;;5094238;28;20443;-70
2024/01/30 01:01:54;;;;;;;;;;;18.30;45.10;;;;;;5128516;28;19920;-70
2024/01/30 01:04:21;;;;;;;;;;;18.70;44.30;;;;;;5094508;28;19990;-70
2024/01/30 01:06:47;;;;;;;;;;;19.20;43.50;;;;;;5116294;28;19920;-70
2024/01/30 01:09:12;;;;;;;;;;;19.80;42.50;;;;;;5098324;28;19927;-70
2024/01/30 01:11:38;;;;;;;;;;;20.40;41.30;;;;;;5098253;28;20051;-70
2024/01/30 01:14:04;;;;;;;;;;;21.00;40.20;;;;;;5116374;28;20414;-70
2024/01/30 01:16:33;;;;;;;;;;;21.60;39.30;;;;;;5116117;28;19919;-70
2024/01/30 01:19:00;;;;;;;;;;;22.10;38.30;;;;;;5097863;28;19924;-71
2024/01/30 01:21:25;;;;;;;;;;;22.60;37.70;;;;;;5098018;28;19919;-70
2024/01/30 01:23:51;;;;;;;;;;;22.90;37.20;;;;;;5116099;28;20019;-71
2024/01/30 01:26:16;;;;;;;;;;;23.10;36.70;;;;;;5115924;28;19920;-70
2024/01/30 01:28:42;;;;;;;;;;;23.40;36.30;;;;;;5094173;28;19978;-70
2024/01/30 01:31:08;;;;;;;;;;;23.60;36.00;;;;;;5094692;28;19942;-70
2024/01/30 01:33:34;;;;;;;;;;;23.70;35.80;;;;;;5110342;28;19970;-73
2024/01/30 01:35:59;;;;;;;;;;;23.80;35.60;;;;;;5095386;28;19924;-70
2024/01/30 01:38:28;;;;;;;;;;;23.90;35.50;;;;;;5095399;28;20014;-70
2024/01/30 01:40:53;;;;;;;;;;;24.00;35.50;;;;;;5077505;28;20054;-71
2024/01/30 01:43:19;;;;;;;;;;;24.10;35.40;;;;;;5095233;28;20442;-71
2024/01/30 01:45:45;;;;;;;;;;;24.20;35.10;;;;;;5077349;28;20006;-70
2024/01/30 01:48:11;;;;;;;;;;;24.30;35.00;;;;;;5076943;28;20058;-70
2024/01/30 01:50:37;;;;;;;;;;;24.40;34.80;;;;;;5077001;28;19973;-70
2024/01/30 01:53:03;;;;;;;;;;;24.50;34.70;;;;;;5076921;28;20396;-70
2024/01/30 01:55:30;;;;;;;;;;;24.60;34.60;;;;;;5095229;28;19924;-71
2024/01/30 01:57:55;;;;;;;;;;;24.70;34.50;;;;;;5077036;28;19927;-71
2024/01/30 02:00:21;;;;;;;;;;;24.80;34.30;;;;;;5076796;28;19924;-71
2024/01/30 02:02:47;;;;;;;;;;;24.90;34.30;;;;;;5094882;28;20015;-70
2024/01/30 02:05:12;;;;;;;;;;;24.90;34.20;;;;;;5076778;28;19920;-70
2024/01/30 02:07:38;;;;;;;;;;;24.90;34.10;;;;;;5076705;28;19924;-70
2024/01/30 02:10:04;;;;;;;;;;;25.00;34.10;;;;;;5094810;28;19924;-71
2024/01/30 02:12:29;;;;;;;;;;;25.00;34.10;;;;;;5076742;28;19931;-70
2024/01/30 02:14:58;;;;;;;;;;;25.00;34.00;;;;;;5094877;28;19919;-70
2024/01/30 02:17:23;;;;;;;;;;;25.10;33.90;;;;;;5094451;28;20443;-70
2024/01/30 02:19:49;;;;;;;;;;;25.10;33.90;;;;;;5094568;28;20023;-70
2024/01/30 02:22:14;;;;;;;;;;;25.10;33.80;;;;;;5110403;28;19958;-70
2024/01/30 02:24:40;;;;;;;;;;;25.20;33.80;;;;;;5076569;28;19964;-70
2024/01/30 02:27:05;;;;;;;;;;;25.20;33.70;;;;;;5094255;28;19936;-70
2024/01/30 02:29:31;;;;;;;;;;;25.30;33.80;;;;;;5094366;28;19928;-70
2024/01/30 02:31:57;;;;;;;;;;;25.30;33.80;;;;;;5076360;28;19920;-70
2024/01/30 02:34:23;;;;;;;;;;;25.30;33.60;;;;;;5076461;28;19920;-70
2024/01/30 02:36:49;;;;;;;;;;;25.40;33.70;;;;;;5076411;28;20432;-71
2024/01/30 02:39:14;;;;;;;;;;;25.30;33.60;;;;;;5075996;28;19924;-70
2024/01/30 02:41:40;;;;;;;;;;;25.30;33.60;;;;;;5076367;28;19922;-71
2024/01/30 02:44:05;;;;;;;;;;;25.30;33.60;;;;;;5094214;28;19920;-70
2024/01/30 02:46:31;;;;;;;;;;;25.30;33.60;;;;;;5076405;28;20388;-70
2024/01/30 02:48:56;;;;;;;;;;;25.30;33.60;;;;;;5076114;28;19927;-70
2024/01/30 02:51:22;;;;;;;;;;;25.30;33.60;;;;;;5075862;28;20431;-70
2024/01/30 02:53:48;;;;;;;;;;;25.40;33.60;;;;;;5093654;28;19998;-70
2024/01/30 02:56:13;;;;;;;;;;;25.40;33.60;;;;;;5093971;28;19927;-71
2024/01/30 02:58:39;;;;;;;;;;;25.40;33.60;;;;;;5075820;28;20057;-72
2024/01/30 03:01:08;;;;;;;;;;;25.40;33.50;;;;;;5075642;28;19959;-70
2024/01/30 03:03:35;;;;;;;;;;;25.40;33.50;;;;;;5075993;28;20289;-70
2024/01/30 03:06:01;;;;;;;;;;;25.40;33.50;;;;;;5075511;28;20023;-70
2024/01/30 03:08:27;;;;;;;;;;;25.40;33.50;;;;;;5093603;28;19967;-70
2024/01/30 03:10:53;;;;;;;;;;;25.40;33.50;;;;;;5075633;28;19973;-70
2024/01/30 03:13:18;;;;;;;;;;;25.30;33.50;;;;;;5075412;28;19935;-70
2024/01/30 03:15:44;;;;;;;;;;;25.40;33.60;;;;;;5093937;28;19926;-73
2024/01/30 03:18:09;;;;;;;;;;;25.40;33.50;;;;;;5109583;28;19920;-71
2024/01/30 03:20:35;;;;;;;;;;;25.40;33.60;;;;;;5075156;28;20378;-71
2024/01/30 03:23:00;;;;;;;;;;;25.40;33.50;;;;;;5093386;28;19981;-73
2024/01/30 03:25:26;;;;;;;;;;;25.40;33.60;;;;;;5093291;28;19967;-71
2024/01/30 03:27:52;;;;;;;;;;;25.30;33.50;;;;;;5108354;28;20397;-73
2024/01/30 03:30:20;;;;;;;;;;;25.30;33.50;;;;;;5075267;28;19970;-71
2024/01/30 03:32:45;;;;;;;;;;;25.30;33.50;;;;;;5074957;28;19924;-71
2024/01/30 03:35:14;;;;;;;;;;;25.30;33.50;;;;;;5075324;28;19920;-70
2024/01/30 03:37:40;;;;;;;;;;;25.30;33.50;;;;;;5075263;28;19920;-70
2024/01/30 03:40:06;;;;;;;;;;;25.40;33.60;;;;;;5074834;28;19927;-70
2024/01/30 03:42:31;;;;;;;;;;;25.30;33.50;;;;;;5093071;28;19964;-70
2024/01/30 03:44:57;;;;;;;;;;;25.30;33.50;;;;;;5075337;28;19927;-70
2024/01/30 03:47:22;;;;;;;;;;;25.30;33.50;;;;;;5093261;28;19920;-70
2024/01/30 03:49:48;;;;;;;;;;;25.30;33.60;;;;;;5093048;28;19924;-71
2024/01/30 03:52:13;;;;;;;;;;;25.30;33.50;;;;;;5074956;28;19998;-71
2024/01/30 03:54:39;;;;;;;;;;;25.30;33.60;;;;;;5074538;28;20382;-70
2024/01/30 03:57:05;;;;;;;;;;;25.30;33.60;;;;;;5092812;28;19924;-71
2024/01/30 03:59:30;;;;;;;;;;;25.30;33.60;;;;;;5074916;28;19989;-71
2024/01/30 04:01:56;;;;;;;;;;;25.30;33.60;;;;;;5074753;28;20003;-71
2024/01/30 04:04:22;;;;;;;;;;;25.30;33.70;;;;;;5092841;28;19928;-72
2024/01/30 04:06:48;;;;;;;;;;;25.20;33.70;;;;;;5092525;28;19920;-70
2024/01/30 04:09:14;;;;;;;;;;;25.20;33.70;;;;;;5074759;28;19920;-71
2024/01/30 04:11:40;;;;;;;;;;;25.20;33.70;;;;;;5092487;28;19974;-72
2024/01/30 04:14:05;;;;;;;;;;;25.20;33.80;;;;;;5092553;28;19975;-72
2024/01/30 04:16:31;;;;;;;;;;;25.20;33.70;;;;;;5092494;28;19926;-70
2024/01/30 04:18:57;;;;;;;;;;;25.10;33.70;;;;;;5092517;28;19926;-70
2024/01/30 04:21:23;;;;;;;;;;;25.20;33.70;;;;;;5074673;28;20014;-71
2024/01/30 04:23:48;;;;;;;;;;;25.20;33.70;;;;;;5074338;28;20027;-71
2024/01/30 04:26:14;;;;;;;;;;;25.20;33.70;;;;;;5074243;28;19920;-71
2024/01/30 04:28:41;;;;;;;;;;;25.10;33.70;;;;;;5074053;28;19931;-71
2024/01/30 04:31:07;;;;;;;;;;;25.20;33.80;;;;;;5092375;28;20292;-71
2024/01/30 04:33:32;;;;;;;;;;;25.10;33.80;;;;;;5092206;28;19929;-71
2024/01/30 04:35:58;;;;;;;;;;;25.10;33.80;;;;;;5092292;28;20077;-72
2024/01/30 04:38:26;;;;;;;;;;;25.10;33.80;;;;;;5092299;28;19920;-71
2024/01/30 04:40:52;;;;;;;;;;;25.10;33.80;;;;;;5076730;28;19920;-71
2024/01/30 04:43:18;;;;;;;;;;;25.10;33.80;;;;;;5096373;28;19926;-71
2024/01/30 04:45:44;;;;;;;;;;;25.10;33.80;;;;;;5112329;28;20415;-71
2024/01/30 04:48:12;;;;;;;;;;;25.10;33.80;;;;;;5096474;28;19920;-71
2024/01/30 04:50:38;;;;;;;;;;;25.10;33.80;;;;;;5096444;28;19920;-71
2024/01/30 04:53:03;;;;;;;;;;;25.10;33.90;;;;;;5096159;28;19972;-73
2024/01/30 04:55:29;;;;;;;;;;;25.10;33.90;;;;;;5096124;28;19923;-72
2024/01/30 04:57:54;;;;;;;;;;;25.10;33.80;;;;;;5078236;28;19928;-71
2024/01/30 05:00:20;;;;;;;;;;;25.10;33.80;;;;;;5078281;28;19920;-71
2024/01/30 05:02:45;;;;;;;;;;;25.10;33.80;;;;;;5096214;28;20363;-71
2024/01/30 05:05:11;;;;;;;;;;;25.10;33.80;;;;;;5096157;28;19920;-71
2024/01/30 05:07:36;;;;;;;;;;;25.10;33.80;;;;;;5096098;28;19967;-70
2024/01/30 05:10:03;;;;;;;;;;;25.10;33.80;;;;;;5077772;28;19920;-72
2024/01/30 05:12:31;;;;;;;;;;;25.10;33.80;;;;;;5095855;28;19929;-71
2024/01/30 05:14:57;;;;;;;;;;;25.20;33.80;;;;;;5077662;28;20011;-72
2024/01/30 05:17:25;;;;;;;;;;;25.20;33.70;;;;;;5095971;28;19999;-71
2024/01/30 05:19:51;;;;;;;;;;;25.30;33.60;;;;;;5077539;28;20375;-71
2024/01/30 05:22:18;;;;;;;;;;;25.40;33.60;;;;;;5095777;28;19927;-71
2024/01/30 05:24:44;;;;;;;;;;;25.40;33.50;;;;;;5078028;28;19920;-72
2024/01/30 05:27:09;;;;;;;;;;;25.50;33.50;;;;;;5095363;28;20282;-71
2024/01/30 05:29:35;;;;;;;;;;;25.50;33.40;;;;;;5095750;28;20363;-71
2024/01/30 05:32:01;;;;;;;;;;;25.50;33.30;;;;;;5077542;28;20476;-71
2024/01/30 05:34:26;;;;;;;;;;;25.50;33.20;;;;;;5095596;28;19927;-71
2024/01/30 05:36:52;;;;;;;;;;;25.50;33.20;;;;;;5077335;28;19923;-71
2024/01/30 05:39:17;;;;;;;;;;;25.50;33.30;;;;;;5095479;28;19920;-71
2024/01/30 05:41:43;;;;;;;;;;;25.50;33.30;;;;;;5095804;28;19920;-71
2024/01/30 05:44:09;;;;;;;;;;;25.50;33.30;;;;;;5095231;28;19920;-75
2024/01/30 05:46:35;;;;;;;;;;;25.40;33.30;;;;;;5095401;28;19920;-71
2024/01/30 05:49:00;;;;;;;;;;;25.40;33.30;;;;;;5095239;28;19920;-72
2024/01/30 05:51:26;;;;;;;;;;;25.40;33.30;;;;;;5076735;28;19973;-73
2024/01/30 05:53:51;;;;;;;;;;;25.40;33.30;;;;;;5076915;28;19973;-72
2024/01/30 05:56:17;;;;;;;;;;;25.40;33.30;;;;;;5095214;28;19942;-72
2024/01/30 05:58:43;;;;;;;;;;;25.30;33.30;;;;;;5095116;28;20390;-71
2024/01/30 06:01:08;;;;;;;;;;;25.30;33.30;;;;;;5095007;28;19924;-72
2024/01/30 06:03:34;;;;;;;;;;;25.30;33.40;;;;;;5077205;28;20426;-71
2024/01/30 06:06:00;;;;;;;;;;;25.30;33.40;;;;;;5076786;28;20114;-71
2024/01/30 06:08:25;;;;;;;;;;;25.30;33.40;;;;;;5076799;28;20012;-71
2024/01/30 06:10:51;;;;;;;;;;;25.30;33.40;;;;;;5076904;28;19920;-71
2024/01/30 06:13:16;;;;;;;;;;;25.30;33.40;;;;;;5076581;28;19933;-71
2024/01/30 06:15:42;;;;;;;;;;;25.20;33.40;;;;;;5095371;28;19920;-71
2024/01/30 06:18:08;;;;;;;;;;;25.20;33.40;;;;;;5077001;28;19920;-72
2024/01/30 06:20:34;;;;;;;;;;;25.20;33.40;;;;;;5094794;28;19927;-73
2024/01/30 06:22:59;;;;;;;;;;;25.20;33.40;;;;;;5076718;28;19972;-73
2024/01/30 06:25:25;;;;;;;;;;;25.20;33.40;;;;;;5076581;28;19981;-72
2024/01/30 06:27:53;;;;;;;;;;;25.30;33.40;;;;;;5094308;28;19924;-71
2024/01/30 06:30:19;;;;;;;;;;;25.30;33.40;;;;;;5074727;28;19928;-71
2024/01/30 06:32:44;;;;;;;;;;;25.30;33.40;;;;;;5076044;28;19931;-70
2024/01/30 06:35:10;;;;;;;;;;;25.30;33.40;;;;;;5076342;28;19997;-69
2024/01/30 06:37:36;;;;;;;;;;;25.10;33.40;;;;;;5092551;28;19932;-68
2024/01/30 06:40:02;;;;;;;;;;;24.70;33.80;;;;;;5085563;28;19927;-70
2024/01/30 06:42:27;;;;;;;;;;;24.40;34.20;;;;;;5076288;28;19927;-68
2024/01/30 06:44:53;;;;;;;;;;;24.20;34.40;;;;;;5087665;28;19976;-67
2024/01/30 06:47:18;;;;;;;;;;;24.40;34.50;;;;;;5072841;28;19924;-67
2024/01/30 06:49:45;;;;;;;;;;;24.60;34.30;;;;;;5075827;28;19927;-67
2024/01/30 06:52:14;;;;;;;;;;;24.80;34.00;;;;;;5074503;28;19947;-68
2024/01/30 06:54:39;;;;;;;;;;;25.00;33.60;;;;;;5077259;28;19924;-68
2024/01/30 06:57:08;;;;;;;;;;;25.10;33.50;;;;;;5086669;28;19942;-69
2024/01/30 06:59:34;;;;;;;;;;;25.10;33.40;;;;;;5100073;28;19920;-70
2024/01/30 07:02:00;;;;;;;;;;;25.20;33.40;;;;;;5079860;28;19972;-70
2024/01/30 07:04:25;;;;;;;;;;;25.20;33.40;;;;;;5083710;28;19969;-69
2024/01/30 07:06:53;;;;;;;;;;;25.40;33.30;;;;;;5100236;28;19974;-70
2024/01/30 07:09:18;;;;;;;;;;;25.60;33.10;;;;;;5095047;28;19924;-72
2024/01/30 07:11:44;;;;;;;;;;;25.80;33.10;;;;;;5084681;28;19980;-71
2024/01/30 07:14:09;;;;;;;;;;;25.90;32.80;;;;;;5085711;28;20441;-71
2024/01/30 07:16:35;;;;;;;;;;;26.10;32.70;;;;;;5078748;28;20405;-71
2024/01/30 07:19:00;;;;;;;;;;;26.10;32.70;;;;;;5050029;28;19927;-69
2024/01/30 07:21:28;;;;;;;;;;;26.20;32.80;;;;;;5088027;27;19928;-69
2024/01/30 07:23:54;;;;;;;;;;;26.30;32.50;;;;;;5053933;28;20016;-70
2024/01/30 07:26:20;;;;;;;;;;;26.30;32.40;;;;;;5055472;28;19924;-71
2024/01/30 07:28:45;;;;;;;;;;;26.20;32.60;;;;;;5067324;27;19931;-70
2024/01/30 07:31:11;;;;;;;;;;;26.00;32.70;;;;;;5101805;27;19977;-70
2024/01/30 07:33:36;;;;;;;;;;;25.90;33.10;;;;;;5102338;27;20627;-70
2024/01/30 07:36:02;;;;;;;;;;;25.90;33.10;;;;;;5080686;27;19924;-71
2024/01/30 07:38:31;;;;;;;;;;;25.80;33.10;;;;;;5109602;27;19928;-71
2024/01/30 07:40:56;;;;;;;;;;;25.80;33.20;;;;;;5086251;28;19965;-70
2024/01/30 07:43:22;;;;;;;;;;;25.80;33.30;;;;;;5101682;27;19967;-74
2024/01/30 07:45:48;;;;;;;;;;;25.80;33.50;;;;;;5098279;27;20344;-71
2024/01/30 07:48:13;;;;;;;;;;;25.70;33.70;;;;;;5079710;28;19931;-72
2024/01/30 07:50:39;;;;;;;;;;;25.60;33.80;;;;;;5079044;28;19983;-72
2024/01/30 07:53:05;;;;;;;;;;;25.50;33.90;;;;;;5079662;28;19938;-72
2024/01/30 07:55:36;;;;;;;;;;;25.50;34.00;;;;;;5100300;27;19927;-72
2024/01/30 07:58:03;;;;;;;;;;;25.50;34.00;;;;;;5115438;27;19924;-71
2024/01/30 08:00:29;;;;;;;;;;;25.60;34.10;;;;;;5098950;27;19928;-72
2024/01/30 08:02:55;;;;;;;;;;;25.90;34.00;;;;;;5102953;27;19930;-72
2024/01/30 08:05:22;;;;;;;;;;;26.00;33.80;;;;;;5082607;28;19927;-72
2024/01/30 08:07:48;;;;;;;;;;;26.10;33.70;;;;;;5082789;28;20065;-72
2024/01/30 08:10:14;;;;;;;;;;;26.20;33.70;;;;;;5123043;27;20018;-71
2024/01/30 08:12:39;;;;;;;;;;;26.20;33.70;;;;;;5097450;27;19932;-72
2024/01/30 08:15:05;;;;;;;;;;;26.10;33.70;;;;;;5080489;28;19920;-72
2024/01/30 08:17:30;;;;;;;;;;;26.00;33.90;;;;;;5083498;27;20047;-71
2024/01/30 08:19:59;;;;;;;;;;;25.80;34.00;;;;;;5098118;28;20363;-70
2024/01/30 08:22:24;;;;;;;;;;;25.70;34.30;;;;;;5096880;28;20076;-70
2024/01/30 08:24:50;;;;;;;;;;;25.50;34.30;;;;;;5115454;27;20461;-70
2024/01/30 08:27:15;;;;;;;;;;;25.20;34.50;;;;;;5080672;28;19935;-72
2024/01/30 08:29:41;;;;;;;;;;;24.80;35.00;;;;;;5085922;28;19920;-72
2024/01/30 08:32:07;;;;;;;;;;;24.50;35.50;;;;;;5081681;28;19924;-73
2024/01/30 08:34:32;;;;;;;;;;;24.40;36.70;;;;;;5097610;28;19923;-70
2024/01/30 08:36:58;;;;;;;;;;;24.40;36.20;;;;;;5079871;28;20559;-73
2024/01/30 08:39:24;;;;;;;;;;;24.40;36.20;;;;;;5097871;28;19923;-72
2024/01/30 08:41:49;;;;;;;;;;;24.40;36.10;;;;;;5077583;28;20011;-72
2024/01/30 08:44:15;;;;;;;;;;;24.50;36.20;;;;;;5118233;27;20427;-72
2024/01/30 08:46:40;;;;;;;;;;;24.60;36.50;;;;;;5081073;28;20496;-71
2024/01/30 08:49:06;;;;;;;;;;;24.70;36.00;;;;;;5086074;28;19930;-72
2024/01/30 08:51:31;;;;;;;;;;;24.80;35.80;;;;;;5076533;28;20019;-71
2024/01/30 08:53:57;;;;;;;;;;;24.80;35.60;;;;;;5077454;28;19928;-72
2024/01/30 08:56:22;;;;;;;;;;;24.90;35.50;;;;;;5096206;28;20410;-72
2024/01/30 08:58:48;;;;;;;;;;;25.00;35.40;;;;;;5097877;28;20563;-72
2024/01/30 09:01:14;;;;;;;;;;;25.10;35.30;;;;;;5079787;28;19962;-72
2024/01/30 09:03:40;;;;;;;;;;;25.10;35.20;;;;;;5080138;28;19924;-69
2024/01/30 09:06:09;;;;;;;;;;;25.20;35.30;;;;;;5096350;28;19924;-71
2024/01/30 09:08:35;;;;;;;;;;;25.10;35.40;;;;;;5081799;28;20578;-70
2024/01/30 09:11:01;;;;;;;;;;;25.10;35.50;;;;;;5079266;28;19927;-71
2024/01/30 09:13:26;;;;;;;;;;;25.10;35.50;;;;;;5098257;28;19942;-70
2024/01/30 09:15:52;;;;;;;;;;;25.20;35.60;;;;;;5097708;28;20422;-71
2024/01/30 09:18:18;;;;;;;;;;;25.20;35.50;;;;;;5114139;27;19928;-69
2024/01/30 09:20:47;;;;;;;;;;;25.00;35.50;;;;;;5094911;28;20037;-69
2024/01/30 09:23:17;;;;;;;;;;;24.80;35.80;;;;;;5085116;28;20022;-66
2024/01/30 09:25:42;;;;;;;;;;;24.70;36.40;;;;;;5081586;27;20600;-66
2024/01/30 09:28:08;;;;;;;;;;;24.50;36.80;;;;;;5102568;27;19928;-68
2024/01/30 09:30:34;;;;;;;;;;;24.40;37.10;;;;;;5116778;27;19936;-70
2024/01/30 09:33:02;;;;;;;;;;;24.40;37.20;;;;;;5101101;27;19981;-66
2024/01/30 09:35:29;;;;;;;;;;;24.60;37.10;;;;;;5098149;27;19924;-66
2024/01/30 09:37:55;;;;;;;;;;;24.70;37.10;;;;;;5102857;27;19919;-66
2024/01/30 09:40:20;;;;;;;;;;;24.80;37.10;;;;;;5084572;27;19930;-66
2024/01/30 09:42:50;;;;;;;;;;;24.80;37.00;;;;;;5101235;27;19927;-66
2024/01/30 09:45:17;;;;;;;;;;;24.90;36.80;;;;;;5080729;28;19931;-67
2024/01/30 09:47:43;;;;;;;;;;;24.90;36.70;;;;;;5103352;27;19967;-68
2024/01/30 09:50:09;;;;;;;;;;;24.90;36.90;;;;;;5094171;27;19974;-69
2024/01/30 09:52:35;;;;;;;;;;;25.00;36.80;;;;;;5083921;28;20378;-68
2024/01/30 09:55:01;;;;;;;;;;;25.20;36.70;;;;;;5082073;27;19926;-68
2024/01/30 09:57:27;;;;;;;;;;;25.50;36.50;;;;;;5101971;27;20010;-68
2024/01/30 09:59:54;;;;;;;;;;;25.80;36.20;;;;;;5102018;27;19967;-68
2024/01/30 10:02:20;;;;;;;;;;;26.00;36.00;;;;;;5103011;27;19977;-69
2024/01/30 10:04:49;;;;;;;;;;;26.10;35.70;;;;;;5099932;27;19931;-68
2024/01/30 10:07:15;;;;;;;;;;;26.20;35.60;;;;;;5083975;27;19927;-68
2024/01/30 10:09:41;;;;;;;;;;;26.20;35.70;;;;;;5104074;27;20411;-71
2024/01/30 10:12:07;;;;;;;;;;;26.10;35.70;;;;;;5088992;28;20016;-70
2024/01/30 10:14:33;;;;;;;;;;;26.00;35.70;;;;;;5102570;27;19924;-68
2024/01/30 10:16:59;;;;;;;;;;;25.80;36.00;;;;;;5084715;27;19984;-71
2024/01/30 10:19:27;;;;;;;;;;;25.50;36.20;;;;;;5096345;27;19931;-70
2024/01/30 10:21:53;;;;;;;;;;;25.30;36.60;;;;;;5103982;27;19958;-68
2024/01/30 10:24:24;;;;;;;;;;;25.20;36.90;;;;;;5081844;27;20590;-68
2024/01/30 10:26:50;;;;;;;;;;;25.00;37.10;;;;;;5115952;27;19927;-70
2024/01/30 10:29:16;;;;;;;;;;;24.80;37.40;;;;;;5095872;27;19924;-72
2024/01/30 10:31:42;;;;;;;;;;;24.60;37.80;;;;;;5092285;28;19919;-68
2024/01/30 10:34:08;;;;;;;;;;;24.50;38.20;;;;;;5085743;27;19950;-67
2024/01/30 10:36:37;;;;;;;;;;;24.40;38.50;;;;;;5108293;27;20382;-69
2024/01/30 10:39:06;;;;;;;;;;;24.30;38.60;;;;;;5076833;28;19935;-70
2024/01/30 10:41:35;;;;;;;;;;;24.30;38.80;;;;;;5112830;27;19928;-67
2024/01/30 10:44:03;;;;;;;;;;;24.30;38.90;;;;;;5117897;27;19924;-70
2024/01/30 10:46:31;;;;;;;;;;;24.40;39.00;;;;;;5097046;27;19931;-69
2024/01/30 10:48:58;;;;;;;;;;;24.40;39.00;;;;;;5118974;27;19924;-70
2024/01/30 10:51:26;;;;;;;;;;;24.40;39.00;;;;;;5083915;27;19931;-68
2024/01/30 10:53:52;;;;;;;;;;;24.50;39.00;;;;;;5094185;27;19931;-70
2024/01/30 10:56:18;;;;;;;;;;;24.50;38.90;;;;;;5101312;27;19920;-70
2024/01/30 10:58:43;;;;;;;;;;;24.50;39.00;;;;;;5099254;27;19930;-68
2024/01/30 11:01:09;;;;;;;;;;;24.60;39.00;;;;;;5102962;27;20250;-68
2024/01/30 11:03:36;;;;;;;;;;;24.70;38.90;;;;;;5099825;27;19977;-68
2024/01/30 11:06:02;;;;;;;;;;;24.70;38.90;;;;;;5101019;27;19924;-68
2024/01/30 11:08:28;;;;;;;;;;;24.80;38.80;;;;;;5098589;27;20022;-68
2024/01/30 11:10:55;;;;;;;;;;;24.80;38.80;;;;;;5110812;27;19919;-68
2024/01/30 11:13:20;;;;;;;;;;;24.90;38.90;;;;;;5096707;27;20327;-69
2024/01/30 11:15:47;;;;;;;;;;;24.90;38.80;;;;;;5081038;27;19927;-69
2024/01/30 11:18:22;;;;;;;;;;;25.00;38.80;;;;;;5110601;27;19923;-69
2024/01/30 11:20:48;;;;;;;;;;;25.00;38.90;;;;;;5097575;27;19930;-73
2024/01/30 11:23:14;;;;;;;;;;;24.80;38.50;;;;;;5095852;27;19939;-68
2024/01/30 11:25:39;;;;;;;;;;;24.70;39.00;;;;;;5103158;27;19927;-68
2024/01/30 11:28:05;;;;;;;;;;;24.50;39.30;;;;;;5081139;27;19924;-72
2024/01/30 11:30:31;;;;;;;;;;;24.40;39.50;;;;;;5096235;27;19931;-70
2024/01/30 11:35:42;;;;;;;;;;;24.50;39.40;;;;;;5102042;27;20184;-67
2024/01/30 11:38:08;;;;;;;;;;;24.50;39.40;;;;;;5105335;28;19927;-66
2024/01/30 11:40:34;;;;;;;;;;;24.40;39.40;;;;;;5106476;28;19966;-67
2024/01/30 11:43:00;;;;;;;;;;;24.30;39.50;;;;;;5113549;28;20379;-69
2024/01/30 11:45:27;;;;;;;;;;;24.40;39.50;;;;;;5109534;28;19924;-66
2024/01/30 11:47:52;;;;;;;;;;;24.40;39.50;;;;;;5111917;28;19924;-64
2024/01/30 11:50:18;;;;;;;;;;;24.50;39.20;;;;;;5101020;28;19924;-66
2024/01/30 11:52:44;;;;;;;;;;;24.60;39.30;;;;;;5106865;27;20388;-66
2024/01/30 11:55:10;;;;;;;;;;;24.80;39.10;;;;;;5106276;27;19927;-67
2024/01/30 11:57:36;;;;;;;;;;;25.00;38.90;;;;;;5106887;28;20331;-67
2024/01/30 12:00:08;;;;;;;;;;;25.20;38.70;;;;;;5112355;28;20316;-66
2024/01/30 12:02:33;;;;;;;;;;;25.20;38.40;;;;;;5095379;28;19928;-63
2024/01/30 12:05:03;;;;;;;;;;;25.20;38.40;;;;;;5109426;28;19930;-67
2024/01/30 12:07:28;;;;;;;;;;;25.10;38.50;;;;;;5107491;28;19932;-70
2024/01/30 12:09:54;;;;;;;;;;;25.00;38.60;;;;;;5106902;28;19927;-66
2024/01/30 12:12:22;;;;;;;;;;;24.90;38.90;;;;;;5102386;28;19930;-67
2024/01/30 12:14:48;;;;;;;;;;;24.90;39.10;;;;;;5098248;28;19979;-66
2024/01/30 12:17:22;;;;;;;;;;;25.00;39.10;;;;;;5108695;28;19924;-67
2024/01/30 12:19:48;;;;;;;;;;;25.10;39.10;;;;;;5104585;28;19923;-66
2024/01/30 12:22:14;;;;;;;;;;;25.20;39.00;;;;;;5113033;28;20381;-67
2024/01/30 12:24:39;;;;;;;;;;;25.20;38.80;;;;;;5113362;28;20603;-66
2024/01/30 12:27:05;;;;;;;;;;;25.20;38.90;;;;;;5112961;28;20013;-66
2024/01/30 12:29:32;;;;;;;;;;;25.20;39.00;;;;;;5108521;28;19924;-72
2024/01/30 12:31:57;;;;;;;;;;;25.20;39.10;;;;;;5114289;28;19923;-66
2024/01/30 12:34:25;;;;;;;;;;;25.20;39.10;;;;;;5107738;28;20455;-66
2024/01/30 12:36:50;;;;;;;;;;;25.10;39.20;;;;;;5099849;27;20369;-65
2024/01/30 12:39:16;;;;;;;;;;;24.90;39.20;;;;;;5107495;28;20406;-66
2024/01/30 12:41:42;;;;;;;;;;;24.70;39.40;;;;;;5104090;28;19927;-66
2024/01/30 12:44:07;;;;;;;;;;;24.40;39.70;;;;;;5105821;27;19924;-66
2024/01/30 12:46:34;;;;;;;;;;;24.20;40.10;;;;;;5093965;28;20345;-67
2024/01/30 12:49:00;;;;;;;;;;;24.10;40.30;;;;;;5095921;28;19973;-67
2024/01/30 12:51:25;;;;;;;;;;;24.00;40.60;;;;;;5099137;28;19927;-67
2024/01/30 12:53:51;;;;;;;;;;;24.00;40.70;;;;;;5093427;28;19928;-67
2024/01/30 12:56:17;;;;;;;;;;;24.00;40.70;;;;;;5090036;28;20624;-65
2024/01/30 12:58:43;;;;;;;;;;;24.10;40.70;;;;;;5091781;28;20464;-66
2024/01/30 13:01:08;;;;;;;;;;;24.30;40.60;;;;;;5098911;28;19931;-64
2024/01/30 13:03:34;;;;;;;;;;;24.40;40.30;;;;;;5092381;28;19979;-65
2024/01/30 13:06:00;;;;;;;;;;;24.70;40.00;;;;;;5090213;28;20038;-65
2024/01/30 13:08:25;;;;;;;;;;;24.80;39.60;;;;;;5091533;28;19931;-66
2024/01/30 13:10:51;;;;;;;;;;;24.80;39.30;;;;;;5092797;28;19986;-67
2024/01/30 13:13:16;;;;;;;;;;;24.90;39.40;;;;;;5084100;28;19924;-66
2024/01/30 13:15:42;;;;;;;;;;;24.90;39.30;;;;;;5090069;28;19981;-64
2024/01/30 13:18:08;;;;;;;;;;;25.00;39.20;;;;;;5089476;28;19967;-64
2024/01/30 13:20:33;;;;;;;;;;;25.00;39.00;;;;;;5090734;28;19928;-64
2024/01/30 13:22:59;;;;;;;;;;;25.20;38.90;;;;;;5089862;28;19920;-64
2024/01/30 13:25:27;;;;;;;;;;;25.20;38.70;;;;;;5099157;28;20061;-64
2024/01/30 13:27:53;;;;;;;;;;;25.20;38.70;;;;;;5088058;28;19928;-64
2024/01/30 13:30:19;;;;;;;;;;;25.30;38.50;;;;;;5090777;28;19924;-64
2024/01/30 13:32:44;;;;;;;;;;;25.40;38.30;;;;;;5090422;28;19931;-63
2024/01/30 13:35:10;;;;;;;;;;;25.40;37.90;;;;;;5089675;28;19951;-64
2024/01/30 13:37:36;;;;;;;;;;;25.40;37.70;;;;;;5093161;28;19977;-65
2024/01/30 13:40:06;;;;;;;;;;;25.30;37.60;;;;;;5092218;28;20030;-63
2024/01/30 13:42:32;;;;;;;;;;;25.20;37.40;;;;;;5087100;28;19924;-64
2024/01/30 13:45:01;;;;;;;;;;;25.30;37.20;;;;;;5083076;28;19927;-63
2024/01/30 13:47:26;;;;;;;;;;;25.30;37.10;;;;;;5070551;28;19924;-64
2024/01/30 13:49:52;;;;;;;;;;;25.30;37.20;;;;;;5092696;28;20358;-64
2024/01/30 13:52:18;;;;;;;;;;;25.30;37.30;;;;;;5087691;28;20339;-66
2024/01/30 13:54:44;;;;;;;;;;;25.40;37.20;;;;;;5085751;28;19935;-66
2024/01/30 13:57:10;;;;;;;;;;;25.50;37.10;;;;;;5086382;28;20385;-64
2024/01/30 13:59:35;;;;;;;;;;;25.50;36.90;;;;;;5083687;28;19920;-70
2024/01/30 14:02:01;;;;;;;;;;;25.60;36.80;;;;;;5085830;28;20028;-68
2024/01/30 14:04:29;;;;;;;;;;;25.50;36.80;;;;;;5085142;28;20711;-70
2024/01/30 14:06:55;;;;;;;;;;;25.50;37.00;;;;;;5085802;28;19920;-65
2024/01/30 14:09:21;;;;;;;;;;;25.50;37.20;;;;;;5080452;28;20005;-66
2024/01/30 14:11:46;;;;;;;;;;;25.60;36.80;;;;;;5079363;28;19951;-68